Time;durP1;ratioP1;P1;durP2;ratioP2;P2;SDS_P1;SDS_P2;PMS_P1;PMS_P2;Temp;Humidity;BMP_temperature;BMP_pressure;BME280_temperature;BME280_humidity;BME280_pressure;Samples;Min_cycle;Max_cycle;Signal;HPM_P1;HPM_P2
2021/05/01 00:02:10;;;;;;;8.43;6.93;;;;;;;;;;5093301;28;20265;-67
2021/05/01 00:04:37;;;;;;;8.90;6.80;;;;;;;;;;5097324;28;20352;-67
2021/05/01 00:07:04;;;;;;;9.63;7.07;;;;;;;;;;5097842;28;20645;-67
2021/05/01 00:09:33;;;;;;;11.07;7.60;;;;;;;;;;5097739;28;20570;-67
2021/05/01 00:12:00;;;;;;;9.90;8.27;;;;;;;;;;5097776;28;20288;-67
2021/05/01 00:14:27;;;;;;;11.60;8.10;;;;;;;;;;5098877;28;20229;-67
2021/05/01 00:16:54;;;;;;;9.80;7.50;;;;;;;;;;5101426;28;20728;-67
2021/05/01 00:19:21;;;;;;;11.03;7.47;;;;;;;;;;5095909;28;20210;-67
2021/05/01 00:21:48;;;;;;;9.43;7.03;;;;;;;;;;5096758;28;20229;-67
2021/05/01 00:24:15;;;;;;;9.10;8.00;;;;;;;;;;5101756;28;20209;-67
2021/05/01 00:26:43;;;;;;;10.13;8.17;;;;;;;;;;5101722;28;20216;-67
2021/05/01 00:29:10;;;;;;;11.73;8.33;;;;;;;;;;5101463;28;20753;-67
2021/05/01 00:31:37;;;;;;;11.03;8.87;;;;;;;;;;5101172;28;20222;-67
2021/05/01 00:34:05;;;;;;;8.83;7.67;;;;;;;;;;5101314;28;20662;-67
2021/05/01 00:36:32;;;;;;;9.63;7.93;;;;;;;;;;5096446;28;20278;-67
2021/05/01 00:38:59;;;;;;;10.33;7.87;;;;;;;;;;5101352;28;20314;-67
2021/05/01 00:41:26;;;;;;;9.43;7.57;;;;;;;;;;5101073;28;20201;-67
2021/05/01 00:43:54;;;;;;;9.23;7.57;;;;;;;;;;5101685;28;20236;-67
2021/05/01 00:46:21;;;;;;;8.87;7.97;;;;;;;;;;5100810;28;20309;-67
2021/05/01 00:48:48;;;;;;;12.57;8.10;;;;;;;;;;5101157;28;20212;-67
2021/05/01 00:51:15;;;;;;;11.47;8.63;;;;;;;;;;5100988;28;20213;-67
2021/05/01 00:53:45;;;;;;;13.80;8.37;;;;;;;;;;5091775;28;20206;-67
2021/05/01 00:56:13;;;;;;;8.90;8.00;;;;;;;;;;5097889;28;20312;-67
2021/05/01 00:58:40;;;;;;;13.87;9.07;;;;;;;;;;5101009;28;20266;-67
2021/05/01 01:01:20;;;;;;;9.80;8.30;;;;;;;;;;5100878;28;20244;-67
2021/05/01 01:03:47;;;;;;;9.80;8.10;;;;;;;;;;5100887;28;20236;-67
2021/05/01 01:06:15;;;;;;;11.20;8.17;;;;;;;;;;5100624;28;20657;-67
2021/05/01 01:08:43;;;;;;;11.27;8.17;;;;;;;;;;5101115;28;20236;-67
2021/05/01 01:11:10;;;;;;;8.70;7.60;;;;;;;;;;5093756;28;20297;-67
2021/05/01 01:13:41;;;;;;;10.87;8.67;;;;;;;;;;5100899;28;20661;-67
2021/05/01 01:16:09;;;;;;;8.63;7.67;;;;;;;;;;5100219;28;20640;-67
2021/05/01 01:18:36;;;;;;;9.70;8.13;;;;;;;;;;5100901;28;20653;-67
2021/05/01 01:21:04;;;;;;;9.23;7.50;;;;;;;;;;5100902;28;20205;-67
2021/05/01 01:23:33;;;;;;;11.17;9.00;;;;;;;;;;5100351;28;20258;-67
2021/05/01 01:26:00;;;;;;;11.37;8.30;;;;;;;;;;5099690;28;20624;-67
2021/05/01 01:28:27;;;;;;;8.90;7.93;;;;;;;;;;5086325;28;20237;-67
2021/05/01 01:30:54;;;;;;;8.50;7.40;;;;;;;;;;5099876;28;20569;-67
2021/05/01 01:33:21;;;;;;;8.10;6.57;;;;;;;;;;5100444;28;20288;-67
2021/05/01 01:35:48;;;;;;;8.63;6.97;;;;;;;;;;5100328;28;20228;-67
2021/05/01 01:38:15;;;;;;;8.60;6.53;;;;;;;;;;5100397;28;20285;-67
2021/05/01 01:40:43;;;;;;;8.57;7.47;;;;;;;;;;5100071;28;20205;-67
2021/05/01 01:43:10;;;;;;;9.83;7.47;;;;;;;;;;5099937;28;20567;-67
2021/05/01 01:45:37;;;;;;;9.07;7.90;;;;;;;;;;5092671;28;20351;-68
2021/05/01 01:48:04;;;;;;;7.83;6.67;;;;;;;;;;5100007;28;20244;-67
2021/05/01 01:50:32;;;;;;;7.73;6.87;;;;;;;;;;5100425;28;20292;-67
2021/05/01 01:53:00;;;;;;;8.20;6.67;;;;;;;;;;5100061;28;20236;-67
2021/05/01 01:55:27;;;;;;;8.63;7.27;;;;;;;;;;5099925;28;20744;-67
2021/05/01 01:57:55;;;;;;;9.07;7.10;;;;;;;;;;5100034;28;20237;-67
2021/05/01 02:00:23;;;;;;;7.90;7.10;;;;;;;;;;5099578;28;20316;-68
2021/05/01 02:02:50;;;;;;;8.77;7.73;;;;;;;;;;5085616;28;20205;-68
2021/05/01 02:05:17;;;;;;;11.00;7.13;;;;;;;;;;5099565;28;20225;-67
2021/05/01 02:07:44;;;;;;;7.60;6.87;;;;;;;;;;5099889;28;20213;-67
2021/05/01 02:10:12;;;;;;;8.03;7.17;;;;;;;;;;5099650;28;20208;-67
2021/05/01 02:12:39;;;;;;;8.47;7.30;;;;;;;;;;5099576;28;20257;-68
2021/05/01 02:15:11;;;;;;;7.70;6.57;;;;;;;;;;5099289;28;20304;-67
2021/05/01 02:17:39;;;;;;;8.07;6.50;;;;;;;;;;5098786;28;20312;-68
2021/05/01 02:20:07;;;;;;;9.60;7.53;;;;;;;;;;5092260;28;20202;-68
2021/05/01 02:22:34;;;;;;;8.33;7.17;;;;;;;;;;5099698;28;20591;-68
2021/05/01 02:25:02;;;;;;;10.23;7.23;;;;;;;;;;5100255;28;20297;-68
2021/05/01 02:27:29;;;;;;;10.93;7.70;;;;;;;;;;5100015;28;20220;-68
2021/05/01 02:29:55;;;;;;;11.47;7.50;;;;;;;;;;5099586;28;20311;-68
2021/05/01 02:32:23;;;;;;;8.07;6.93;;;;;;;;;;5098914;28;20309;-67
2021/05/01 02:34:50;;;;;;;11.03;7.30;;;;;;;;;;5097454;28;20679;-68
2021/05/01 02:37:17;;;;;;;8.83;7.00;;;;;;;;;;5098551;28;20303;-68
2021/05/01 02:39:45;;;;;;;9.30;7.60;;;;;;;;;;5098507;28;20297;-67
2021/05/01 02:42:12;;;;;;;10.10;7.50;;;;;;;;;;5098878;28;20669;-68
2021/05/01 02:44:39;;;;;;;7.83;7.03;;;;;;;;;;5099108;28;20264;-67
2021/05/01 02:47:06;;;;;;;10.53;8.07;;;;;;;;;;5098568;28;20237;-67
2021/05/01 02:49:35;;;;;;;10.80;8.03;;;;;;;;;;5099045;28;20244;-67
2021/05/01 02:52:02;;;;;;;11.33;7.90;;;;;;;;;;5095558;28;20244;-68
2021/05/01 02:54:29;;;;;;;9.30;8.20;;;;;;;;;;5095241;28;20226;-67
2021/05/01 02:56:56;;;;;;;10.40;8.20;;;;;;;;;;5098847;28;20244;-67
2021/05/01 02:59:23;;;;;;;12.00;8.07;;;;;;;;;;5098631;28;20571;-67
2021/05/01 03:01:51;;;;;;;8.20;7.30;;;;;;;;;;5098613;28;20289;-67
2021/05/01 03:04:18;;;;;;;10.03;8.10;;;;;;;;;;5098445;28;20228;-67
2021/05/01 03:06:46;;;;;;;12.13;7.70;;;;;;;;;;5098473;28;20288;-68
2021/05/01 03:09:13;;;;;;;8.53;7.33;;;;;;;;;;5097425;28;20289;-68
2021/05/01 03:11:40;;;;;;;15.53;8.80;;;;;;;;;;5098613;28;20241;-68
2021/05/01 03:14:07;;;;;;;11.17;8.37;;;;;;;;;;5098325;28;20256;-68
2021/05/01 03:16:34;;;;;;;10.67;8.37;;;;;;;;;;5098357;28;20241;-68
2021/05/01 03:19:01;;;;;;;9.97;8.23;;;;;;;;;;5098504;28;20233;-68
2021/05/01 03:21:28;;;;;;;9.57;8.27;;;;;;;;;;5098542;28;20211;-68
2021/05/01 03:23:56;;;;;;;11.27;8.70;;;;;;;;;;5098177;28;20703;-68
2021/05/01 03:26:23;;;;;;;13.23;8.80;;;;;;;;;;5091603;28;20309;-68
2021/05/01 03:28:50;;;;;;;11.07;8.60;;;;;;;;;;5096583;28;20649;-68
2021/05/01 03:31:17;;;;;;;9.97;8.40;;;;;;;;;;5097720;28;20288;-68
2021/05/01 03:33:44;;;;;;;10.93;8.77;;;;;;;;;;5097818;28;20228;-68
2021/05/01 03:36:11;;;;;;;11.57;9.23;;;;;;;;;;5097954;28;20312;-68
2021/05/01 03:38:38;;;;;;;10.93;9.20;;;;;;;;;;5097924;28;20297;-68
2021/05/01 03:41:06;;;;;;;11.67;8.93;;;;;;;;;;5098040;28;20630;-68
2021/05/01 03:43:33;;;;;;;11.80;9.20;;;;;;;;;;5097035;28;20288;-68
2021/05/01 03:46:01;;;;;;;10.70;9.20;;;;;;;;;;5097623;28;20305;-68
2021/05/01 03:48:28;;;;;;;13.97;10.37;;;;;;;;;;5098206;28;20215;-66
2021/05/01 03:50:54;;;;;;;13.37;9.37;;;;;;;;;;5097790;28;20297;-66
2021/05/01 03:53:22;;;;;;;13.00;9.60;;;;;;;;;;5097724;28;20229;-66
2021/05/01 03:55:49;;;;;;;14.47;10.20;;;;;;;;;;5098020;28;20257;-66
2021/05/01 03:58:17;;;;;;;14.77;10.67;;;;;;;;;;5097935;28;20237;-66
2021/05/01 04:00:44;;;;;;;13.20;10.30;;;;;;;;;;5089798;28;20241;-66
2021/05/01 04:03:11;;;;;;;11.87;8.77;;;;;;;;;;5097998;28;20285;-67
2021/05/01 04:05:38;;;;;;;12.43;9.57;;;;;;;;;;5097818;28;20312;-67
2021/05/01 04:08:05;;;;;;;12.00;9.37;;;;;;;;;;5097740;28;20296;-66
2021/05/01 04:10:33;;;;;;;11.77;9.20;;;;;;;;;;5097894;28;20209;-66
2021/05/01 04:13:00;;;;;;;12.67;9.87;;;;;;;;;;5097767;28;20229;-67
2021/05/01 04:15:28;;;;;;;16.17;10.33;;;;;;;;;;5097214;28;20325;-66
2021/05/01 04:17:55;;;;;;;12.67;8.93;;;;;;;;;;5096879;28;20219;-66
2021/05/01 04:20:22;;;;;;;12.03;9.50;;;;;;;;;;5097811;28;20206;-66
2021/05/01 04:22:51;;;;;;;12.03;8.97;;;;;;;;;;5097777;28;20239;-66
2021/05/01 04:25:18;;;;;;;10.93;9.20;;;;;;;;;;5097663;28;20316;-67
2021/05/01 04:27:45;;;;;;;11.23;8.90;;;;;;;;;;5097467;28;20684;-67
2021/05/01 04:30:13;;;;;;;11.80;9.53;;;;;;;;;;5096981;28;20233;-68
2021/05/01 04:32:41;;;;;;;9.90;8.00;;;;;;;;;;5097501;28;20308;-67
2021/05/01 04:35:08;;;;;;;13.93;9.20;;;;;;;;;;5093644;28;20225;-67
2021/05/01 04:37:35;;;;;;;13.20;9.77;;;;;;;;;;5097585;28;20281;-66
2021/05/01 04:40:03;;;;;;;12.03;9.03;;;;;;;;;;5097660;28;20289;-68
2021/05/01 04:42:30;;;;;;;14.57;9.97;;;;;;;;;;5097558;28;20240;-66
2021/05/01 04:44:57;;;;;;;12.83;9.80;;;;;;;;;;5097038;28;20720;-67
2021/05/01 04:47:25;;;;;;;13.87;9.67;;;;;;;;;;5096997;28;20276;-68
2021/05/01 04:49:53;;;;;;;11.30;10.10;;;;;;;;;;5097517;28;20210;-68
2021/05/01 04:52:20;;;;;;;12.93;9.67;;;;;;;;;;5094802;28;20305;-66
2021/05/01 04:54:47;;;;;;;13.87;10.50;;;;;;;;;;5097346;28;20289;-66
2021/05/01 04:57:14;;;;;;;13.10;9.90;;;;;;;;;;5097195;28;20300;-67
2021/05/01 04:59:43;;;;;;;14.20;10.20;;;;;;;;;;5097149;28;20761;-66
2021/05/01 05:02:10;;;;;;;11.53;9.97;;;;;;;;;;5099160;28;20240;-67
2021/05/01 05:04:37;;;;;;;13.53;10.83;;;;;;;;;;5100648;28;20633;-66
2021/05/01 05:07:05;;;;;;;13.13;10.23;;;;;;;;;;5101184;28;20213;-66
2021/05/01 05:09:32;;;;;;;14.07;10.87;;;;;;;;;;5090613;28;20217;-66
2021/05/01 05:11:59;;;;;;;15.53;11.33;;;;;;;;;;5097020;28;20229;-66
2021/05/01 05:14:26;;;;;;;13.37;9.80;;;;;;;;;;5089936;28;20276;-66
2021/05/01 05:16:54;;;;;;;11.40;10.20;;;;;;;;;;5100292;28;20680;-66
2021/05/01 05:19:21;;;;;;;13.33;9.57;;;;;;;;;;5100666;28;20202;-66
2021/05/01 05:21:48;;;;;;;12.83;9.47;;;;;;;;;;5100279;28;20198;-66
2021/05/01 05:24:15;;;;;;;12.40;9.97;;;;;;;;;;5100251;28;20308;-66
2021/05/01 05:26:42;;;;;;;10.77;9.00;;;;;;;;;;5098977;28;20233;-66
2021/05/01 05:29:11;;;;;;;14.47;9.90;;;;;;;;;;5100354;28;20228;-67
2021/05/01 05:31:38;;;;;;;12.13;9.60;;;;;;;;;;5100106;28;20197;-66
2021/05/01 05:34:05;;;;;;;10.80;9.57;;;;;;;;;;5099895;28;20240;-66
2021/05/01 05:36:32;;;;;;;11.57;9.63;;;;;;;;;;5100067;28;20643;-66
2021/05/01 05:38:59;;;;;;;13.30;10.00;;;;;;;;;;5100144;28;20209;-66
2021/05/01 05:41:28;;;;;;;13.30;9.47;;;;;;;;;;5100149;28;20717;-66
2021/05/01 05:43:55;;;;;;;11.70;9.20;;;;;;;;;;5090312;28;20233;-68
2021/05/01 05:46:22;;;;;;;11.60;9.03;;;;;;;;;;5099429;28;20343;-67
2021/05/01 05:48:49;;;;;;;12.97;8.87;;;;;;;;;;5100004;28;20202;-66
2021/05/01 05:51:16;;;;;;;10.20;9.10;;;;;;;;;;5100146;28;20296;-67
2021/05/01 05:53:46;;;;;;;10.83;9.23;;;;;;;;;;5099829;28;20589;-68
2021/05/01 05:56:14;;;;;;;10.73;8.53;;;;;;;;;;5099939;28;20296;-68
2021/05/01 05:58:42;;;;;;;10.30;8.63;;;;;;;;;;5099546;28;20297;-68
2021/05/01 06:01:10;;;;;;;9.03;7.67;;;;;;;;;;5096959;28;20292;-68
2021/05/01 06:03:39;;;;;;;11.37;8.70;;;;;;;;;;5099812;28;20900;-67
2021/05/01 06:06:11;;;;;;;9.87;8.83;;;;;;;;;;5099448;28;20562;-68
2021/05/01 06:08:38;;;;;;;11.30;8.57;;;;;;;;;;5100037;28;20215;-68
2021/05/01 06:11:06;;;;;;;10.77;8.77;;;;;;;;;;5099764;28;20285;-67
2021/05/01 06:13:34;;;;;;;9.80;8.47;;;;;;;;;;5099387;28;20260;-68
2021/05/01 06:16:02;;;;;;;11.30;8.17;;;;;;;;;;5095834;28;20255;-66
2021/05/01 06:18:33;;;;;;;11.77;8.70;;;;;;;;;;5092910;28;20237;-68
2021/05/01 06:21:01;;;;;;;8.60;7.70;;;;;;;;;;5099406;28;20675;-66
2021/05/01 06:23:28;;;;;;;9.03;7.97;;;;;;;;;;5099558;28;20244;-66
2021/05/01 06:25:55;;;;;;;10.73;8.27;;;;;;;;;;5099521;28;20261;-68
2021/05/01 06:28:22;;;;;;;9.93;8.03;;;;;;;;;;5099037;28;20229;-66
2021/05/01 06:30:50;;;;;;;9.47;7.83;;;;;;;;;;5098954;28;20207;-67
2021/05/01 06:33:18;;;;;;;9.07;7.97;;;;;;;;;;5095950;28;20289;-67
2021/05/01 06:35:47;;;;;;;12.10;8.67;;;;;;;;;;5098842;28;20328;-67
2021/05/01 06:38:14;;;;;;;10.90;8.83;;;;;;;;;;5098914;28;20311;-66
2021/05/01 06:40:43;;;;;;;8.73;7.83;;;;;;;;;;5098944;28;20244;-66
2021/05/01 06:43:13;;;;;;;10.57;8.53;;;;;;;;;;5098737;28;20296;-68
2021/05/01 06:45:40;;;;;;;12.17;8.90;;;;;;;;;;5098299;28;20225;-66
2021/05/01 06:48:09;;;;;;;11.97;9.27;;;;;;;;;;5098487;28;20890;-67
2021/05/01 06:50:40;;;;;;;11.33;8.90;;;;;;;;;;5097925;28;20197;-67
2021/05/01 06:53:07;;;;;;;10.10;8.27;;;;;;;;;;5097105;28;20229;-68
2021/05/01 06:55:34;;;;;;;9.17;7.73;;;;;;;;;;5098669;28;20288;-67
2021/05/01 06:58:03;;;;;;;11.60;8.57;;;;;;;;;;5098038;28;20631;-67
2021/05/01 07:00:31;;;;;;;11.87;9.33;;;;;;;;;;5097976;28;20197;-69
2021/05/01 07:03:03;;;;;;;9.73;8.20;;;;;;;;;;5097546;28;20217;-69
2021/05/01 07:05:30;;;;;;;9.67;8.47;;;;;;;;;;5096058;28;20224;-69
2021/05/01 07:07:58;;;;;;;9.57;8.30;;;;;;;;;;5096780;28;20198;-66
2021/05/01 07:10:25;;;;;;;11.07;8.67;;;;;;;;;;5095730;28;20233;-66
2021/05/01 07:12:52;;;;;;;9.77;8.13;;;;;;;;;;5094750;28;20252;-66
2021/05/01 07:15:20;;;;;;;10.87;8.80;;;;;;;;;;5103004;28;21167;-67
2021/05/01 07:17:51;;;;;;;11.13;8.97;;;;;;;;;;5109413;28;20221;-68
2021/05/01 07:20:18;;;;;;;11.93;9.20;;;;;;;;;;5105351;28;20205;-67
2021/05/01 07:22:45;;;;;;;12.30;9.17;;;;;;;;;;5105658;28;20644;-66
2021/05/01 07:25:14;;;;;;;11.87;9.77;;;;;;;;;;5105260;28;20248;-67
2021/05/01 07:27:47;;;;;;;11.57;9.07;;;;;;;;;;5112504;28;20193;-66
2021/05/01 07:30:15;;;;;;;12.43;9.23;;;;;;;;;;5095771;28;20284;-66
2021/05/01 07:32:43;;;;;;;12.00;9.23;;;;;;;;;;5098258;28;20225;-66
2021/05/01 07:35:12;;;;;;;10.17;8.67;;;;;;;;;;5098109;28;20304;-67
2021/05/01 07:37:40;;;;;;;15.00;9.97;;;;;;;;;;5098110;28;20205;-66
2021/05/01 07:40:10;;;;;;;15.40;10.10;;;;;;;;;;5097926;28;20618;-66
2021/05/01 07:42:39;;;;;;;10.73;9.10;;;;;;;;;;5093989;28;20668;-66
2021/05/01 07:45:07;;;;;;;12.80;10.03;;;;;;;;;;5107329;28;20213;-67
2021/05/01 07:47:34;;;;;;;11.10;9.47;;;;;;;;;;5106289;28;20743;-67
2021/05/01 07:50:02;;;;;;;11.50;9.00;;;;;;;;;;5097392;28;21251;-67
2021/05/01 07:52:31;;;;;;;11.43;8.97;;;;;;;;;;5086145;28;20202;-65
2021/05/01 07:54:58;;;;;;;11.57;9.80;;;;;;;;;;5083682;28;20306;-65
2021/05/01 07:57:25;;;;;;;10.50;9.00;;;;;;;;;;5086098;28;20620;-67
2021/05/01 07:59:53;;;;;;;11.43;8.97;;;;;;;;;;5104853;28;20231;-66
2021/05/01 08:02:20;;;;;;;11.53;9.23;;;;;;;;;;5105194;28;20517;-65
2021/05/01 08:05:08;;;;;;;11.50;9.30;;;;;;;;;;5106744;28;20232;-66
2021/05/01 08:07:35;;;;;;;9.60;8.20;;;;;;;;;;5108271;28;20672;-65
2021/05/01 08:10:03;;;;;;;10.33;8.53;;;;;;;;;;5106482;28;20232;-67
2021/05/01 08:12:30;;;;;;;12.80;9.37;;;;;;;;;;5106446;28;20256;-66
2021/05/01 08:14:58;;;;;;;10.30;8.17;;;;;;;;;;5085314;28;20221;-69
2021/05/01 08:17:25;;;;;;;10.77;8.53;;;;;;;;;;5085450;28;20205;-68
2021/05/01 08:19:53;;;;;;;11.20;9.00;;;;;;;;;;5079489;28;20198;-68
2021/05/01 08:22:20;;;;;;;10.90;8.70;;;;;;;;;;5096139;28;20285;-67
2021/05/01 08:24:47;;;;;;;12.73;9.57;;;;;;;;;;5092273;28;20224;-70
2021/05/01 08:27:14;;;;;;;11.50;8.53;;;;;;;;;;5081848;28;20612;-67
2021/05/01 08:29:41;;;;;;;10.93;8.97;;;;;;;;;;5085027;28;20281;-67
2021/05/01 08:32:09;;;;;;;9.97;8.23;;;;;;;;;;5085339;28;20280;-67
2021/05/01 08:34:37;;;;;;;11.37;9.40;;;;;;;;;;5087220;28;20225;-67
2021/05/01 08:37:04;;;;;;;10.50;8.77;;;;;;;;;;5084722;28;20194;-69
2021/05/01 08:39:32;;;;;;;9.50;7.80;;;;;;;;;;5089045;28;20206;-69
2021/05/01 08:41:58;;;;;;;9.97;8.97;;;;;;;;;;5085962;28;20232;-69
2021/05/01 08:44:25;;;;;;;10.10;8.63;;;;;;;;;;5088848;28;20226;-69
2021/05/01 08:46:53;;;;;;;11.87;9.43;;;;;;;;;;5087426;28;20226;-68
2021/05/01 08:49:21;;;;;;;12.70;8.77;;;;;;;;;;5088454;28;20204;-67
2021/05/01 08:51:47;;;;;;;13.60;9.43;;;;;;;;;;5086477;28;20281;-67
2021/05/01 08:54:15;;;;;;;12.60;9.63;;;;;;;;;;5088409;28;20226;-69
2021/05/01 08:56:42;;;;;;;15.10;10.07;;;;;;;;;;5085579;28;20234;-67
2021/05/01 08:59:10;;;;;;;11.20;9.13;;;;;;;;;;5088564;28;20284;-68
2021/05/01 09:01:39;;;;;;;13.93;10.30;;;;;;;;;;5085387;28;20201;-67
2021/05/01 09:04:06;;;;;;;12.57;9.87;;;;;;;;;;5087542;28;20231;-67
2021/05/01 09:06:35;;;;;;;11.77;9.20;;;;;;;;;;5088189;28;20201;-70
2021/05/01 09:09:04;;;;;;;10.97;8.90;;;;;;;;;;5089496;28;20193;-69
2021/05/01 09:11:35;;;;;;;10.77;9.43;;;;;;;;;;5085781;28;20240;-69
2021/05/01 09:14:14;;;;;;;13.50;9.47;;;;;;;;;;5087247;28;20694;-68
2021/05/01 09:16:41;;;;;;;10.93;8.90;;;;;;;;;;5087305;28;20644;-67
2021/05/01 09:19:08;;;;;;;19.50;9.87;;;;;;;;;;5088071;28;20198;-65
2021/05/01 09:21:37;;;;;;;11.37;9.47;;;;;;;;;;5087013;28;20241;-69
2021/05/01 09:24:04;;;;;;;11.67;9.50;;;;;;;;;;5088161;28;20682;-68
2021/05/01 09:26:36;;;;;;;11.33;9.27;;;;;;;;;;5086561;28;20205;-68
2021/05/01 09:29:03;;;;;;;11.77;9.13;;;;;;;;;;5085153;28;20623;-69
2021/05/01 09:31:38;;;;;;;11.70;9.07;;;;;;;;;;5087457;28;20194;-69
2021/05/01 09:34:05;;;;;;;11.40;8.93;;;;;;;;;;5087517;28;20221;-69
2021/05/01 09:36:32;;;;;;;9.87;7.90;;;;;;;;;;5100130;28;20236;-70
2021/05/01 09:39:10;;;;;;;9.97;8.63;;;;;;;;;;5099750;28;20687;-69
2021/05/01 09:41:38;;;;;;;12.27;9.63;;;;;;;;;;5087060;28;20311;-70
2021/05/01 09:44:06;;;;;;;14.47;9.60;;;;;;;;;;5100081;28;20339;-69
2021/05/01 09:46:43;;;;;;;10.60;8.30;;;;;;;;;;5099410;28;20244;-69
2021/05/01 09:49:11;;;;;;;9.17;8.10;;;;;;;;;;5100338;28;20256;-70
2021/05/01 09:51:56;;;;;;;9.70;7.93;;;;;;;;;;5095685;28;20229;-69
2021/05/01 09:54:26;;;;;;;8.60;7.73;;;;;;;;;;5083990;28;20566;-69
2021/05/01 09:56:54;;;;;;;10.97;7.87;;;;;;;;;;5087429;28;20681;-68
2021/05/01 09:59:21;;;;;;;10.80;8.10;;;;;;;;;;5084358;28;20661;-67
2021/05/01 10:01:58;;;;;;;10.77;8.57;;;;;;;;;;5086676;28;20280;-67
2021/05/01 10:04:25;;;;;;;11.60;7.83;;;;;;;;;;5084629;28;20218;-67
2021/05/01 10:07:00;;;;;;;9.40;7.63;;;;;;;;;;5093563;28;20208;-67
2021/05/01 10:09:29;;;;;;;10.37;8.07;;;;;;;;;;5106547;28;20269;-68
2021/05/01 10:12:03;;;;;;;10.13;7.93;;;;;;;;;;5107182;28;20200;-68
2021/05/01 10:14:33;;;;;;;8.67;7.67;;;;;;;;;;5095535;28;20253;-70
2021/05/01 10:17:00;;;;;;;10.33;7.63;;;;;;;;;;5094563;28;20201;-69
2021/05/01 10:19:43;;;;;;;9.27;7.57;;;;;;;;;;5099417;28;20308;-68
2021/05/01 10:22:20;;;;;;;8.27;6.50;;;;;;;;;;5099339;28;20264;-68
2021/05/01 10:24:49;;;;;;;8.50;7.43;;;;;;;;;;5099567;28;20224;-68
2021/05/01 10:27:18;;;;;;;8.23;7.27;;;;;;;;;;5102383;28;20229;-70
2021/05/01 10:29:45;;;;;;;11.50;6.93;;;;;;;;;;5108734;28;20205;-69
2021/05/01 10:32:18;;;;;;;8.13;6.77;;;;;;;;;;5105665;28;20363;-70
2021/05/01 10:34:46;;;;;;;9.77;7.57;;;;;;;;;;5108538;28;20221;-70
2021/05/01 10:37:13;;;;;;;6.77;6.07;;;;;;;;;;5101829;28;20255;-70
2021/05/01 10:39:43;;;;;;;8.90;6.37;;;;;;;;;;5099108;28;20571;-70
2021/05/01 10:42:14;;;;;;;7.00;5.90;;;;;;;;;;5099038;28;20205;-70
2021/05/01 10:44:54;;;;;;;7.40;5.30;;;;;;;;;;5101839;28;20296;-67
2021/05/01 10:47:21;;;;;;;6.33;5.73;;;;;;;;;;5106442;28;20232;-67
2021/05/01 10:50:16;;;;;;;6.03;5.43;;;;;;;;;;5103617;28;20233;-68
2021/05/01 10:52:44;;;;;;;7.63;6.00;;;;;;;;;;5105144;28;20236;-69
2021/05/01 10:55:11;;;;;;;7.33;5.90;;;;;;;;;;5106461;28;20305;-68
2021/05/01 10:57:40;;;;;;;6.67;6.00;;;;;;;;;;5098979;28;20232;-67
2021/05/01 11:00:08;;;;;;;7.63;5.60;;;;;;;;;;5097400;28;20580;-68
2021/05/01 11:02:36;;;;;;;6.23;5.27;;;;;;;;;;5098909;28;20212;-67
2021/05/01 11:05:05;;;;;;;8.43;5.40;;;;;;;;;;5095094;28;20210;-67
2021/05/01 11:07:41;;;;;;;13.93;6.20;;;;;;;;;;5105647;28;20205;-67
2021/05/01 11:10:10;;;;;;;7.60;5.20;;;;;;;;;;5098654;28;20229;-67
2021/05/01 11:12:38;;;;;;;6.00;4.80;;;;;;;;;;5098183;28;20563;-67
2021/05/01 11:15:08;;;;;;;6.43;5.37;;;;;;;;;;5095523;28;20441;-68
2021/05/01 11:17:37;;;;;;;6.90;6.20;;;;;;;;;;5095825;28;20609;-67
2021/05/01 11:20:06;;;;;;;5.77;5.07;;;;;;;;;;5108418;28;20227;-67
2021/05/01 11:22:33;;;;;;;5.67;5.13;;;;;;;;;;5089788;28;20608;-67
2021/05/01 11:25:03;;;;;;;6.30;5.60;;;;;;;;;;5094950;28;20289;-67
2021/05/01 11:27:30;;;;;;;5.97;5.30;;;;;;;;;;5098082;28;20240;-67
2021/05/01 11:29:57;;;;;;;6.23;5.53;;;;;;;;;;5097883;28;20264;-67
2021/05/01 11:32:26;;;;;;;6.20;5.60;;;;;;;;;;5098202;28;20566;-66
2021/05/01 11:34:59;;;;;;;5.73;5.10;;;;;;;;;;5097691;28;20229;-66
2021/05/01 11:37:27;;;;;;;7.17;6.10;;;;;;;;;;5098222;28;20202;-67
2021/05/01 11:39:56;;;;;;;5.67;5.07;;;;;;;;;;5093734;28;20205;-67
2021/05/01 11:42:23;;;;;;;6.13;5.53;;;;;;;;;;5097828;28;20288;-66
2021/05/01 11:44:51;;;;;;;6.93;5.73;;;;;;;;;;5097715;28;21118;-66
2021/05/01 11:47:18;;;;;;;6.27;5.30;;;;;;;;;;5097788;28;20320;-66
2021/05/01 11:49:47;;;;;;;6.37;5.13;;;;;;;;;;5098177;28;20216;-66
2021/05/01 11:52:19;;;;;;;5.93;5.33;;;;;;;;;;5098233;28;20291;-66
2021/05/01 11:54:53;;;;;;;5.10;4.60;;;;;;;;;;5098245;28;20320;-66
2021/05/01 11:57:24;;;;;;;6.57;4.97;;;;;;;;;;5086852;28;20208;-66
2021/05/01 11:59:52;;;;;;;5.37;4.77;;;;;;;;;;5097773;28;20216;-67
2021/05/01 12:02:21;;;;;;;5.63;5.13;;;;;;;;;;5097669;28;20685;-66
2021/05/01 12:04:59;;;;;;;5.20;4.70;;;;;;;;;;5097641;28;20720;-66
2021/05/01 12:07:30;;;;;;;6.20;5.13;;;;;;;;;;5097994;28;20247;-67
2021/05/01 12:10:00;;;;;;;5.33;4.83;;;;;;;;;;5097567;28;20201;-66
2021/05/01 12:12:28;;;;;;;5.10;4.60;;;;;;;;;;5101714;28;20292;-67
2021/05/01 12:15:00;;;;;;;7.00;5.53;;;;;;;;;;5101493;28;20758;-66
2021/05/01 12:17:30;;;;;;;5.17;4.60;;;;;;;;;;5101940;28;20240;-66
2021/05/01 12:20:09;;;;;;;5.43;4.90;;;;;;;;;;5102472;28;20237;-66
2021/05/01 12:22:36;;;;;;;7.17;5.20;;;;;;;;;;5101710;28;20755;-66
2021/05/01 12:25:32;;;;;;;6.33;5.13;;;;;;;;;;5101836;28;20263;-67
2021/05/01 12:27:59;;;;;;;6.47;4.90;;;;;;;;;;5101488;28;20244;-65
2021/05/01 12:31:00;;;;;;;6.30;4.87;;;;;;;;;;5101278;28;20686;-65
2021/05/01 12:33:48;;;;;;;5.57;4.27;;;;;;;;;;5101091;28;20739;-65
2021/05/01 12:36:17;;;;;;;7.27;4.37;;;;;;;;;;5101161;28;20660;-65
2021/05/01 12:38:48;;;;;;;5.80;4.33;;;;;;;;;;5101166;28;20230;-66
2021/05/01 12:41:34;;;;;;;5.17;4.43;;;;;;;;;;5098689;28;20229;-66
2021/05/01 12:44:01;;;;;;;5.37;3.93;;;;;;;;;;5099902;28;20232;-66
2021/05/01 12:46:52;;;;;;;5.83;4.77;;;;;;;;;;5100294;28;20803;-66
2021/05/01 12:49:23;;;;;;;3.67;3.37;;;;;;;;;;5101395;28;20209;-66
2021/05/01 12:51:55;;;;;;;4.57;3.83;;;;;;;;;;5101386;28;20205;-66
2021/05/01 12:54:29;;;;;;;6.17;4.07;;;;;;;;;;5100932;28;20232;-66
2021/05/01 12:56:57;;;;;;;4.30;3.90;;;;;;;;;;5100997;28;20240;-66
2021/05/01 12:59:29;;;;;;;4.53;4.13;;;;;;;;;;5101167;28;20209;-67
2021/05/01 13:02:29;;;;;;;5.13;4.50;;;;;;;;;;5101091;28;20248;-66
2021/05/01 13:05:11;;;;;;;4.97;4.50;;;;;;;;;;5100773;28;20725;-66
2021/05/01 13:07:41;;;;;;;5.50;4.13;;;;;;;;;;5101041;28;20209;-66
2021/05/01 13:10:08;;;;;;;4.87;4.27;;;;;;;;;;5101035;28;20212;-66
2021/05/01 13:13:07;;;;;;;4.67;4.27;;;;;;;;;;5100576;28;20632;-66
2021/05/01 13:15:53;;;;;;;4.73;4.03;;;;;;;;;;5100342;28;20316;-66
2021/05/01 13:18:20;;;;;;;5.43;3.90;;;;;;;;;;5089767;28;20288;-66
2021/05/01 13:21:02;;;;;;;4.50;3.87;;;;;;;;;;5100794;28;20236;-66
2021/05/01 13:23:40;;;;;;;4.67;4.27;;;;;;;;;;5099908;28;20240;-66
2021/05/01 13:26:14;;;;;;;4.00;3.70;;;;;;;;;;5100736;28;20787;-66
2021/05/01 13:28:46;;;;;;;4.07;3.67;;;;;;;;;;5100678;28;20219;-66
2021/05/01 13:31:14;;;;;;;6.67;4.03;;;;;;;;;;5100128;28;20237;-66
2021/05/01 13:33:42;;;;;;;4.97;4.00;;;;;;;;;;5100502;28;20261;-66
2021/05/01 13:36:12;;;;;;;4.33;3.90;;;;;;;;;;5100226;28;20561;-66
2021/05/01 13:38:42;;;;;;;4.73;3.87;;;;;;;;;;5100455;28;20201;-67
2021/05/01 13:41:15;;;;;;;4.03;3.20;;;;;;;;;;5100746;28;20285;-66
2021/05/01 13:43:50;;;;;;;4.53;3.90;;;;;;;;;;5100452;28;20266;-66
2021/05/01 13:46:19;;;;;;;3.63;3.33;;;;;;;;;;5099769;28;20325;-66
2021/05/01 13:48:47;;;;;;;3.63;3.30;;;;;;;;;;5100103;28;20233;-66
2021/05/01 13:51:14;;;;;;;3.97;3.47;;;;;;;;;;5100122;28;20201;-66
2021/05/01 13:53:42;;;;;;;3.83;3.53;;;;;;;;;;5099860;28;20661;-66
2021/05/01 13:56:09;;;;;;;5.20;3.70;;;;;;;;;;5099816;28;20289;-66
2021/05/01 13:58:36;;;;;;;4.20;3.80;;;;;;;;;;5099891;28;20301;-66
2021/05/01 14:01:03;;;;;;;5.23;3.93;;;;;;;;;;5099480;28;20255;-66
2021/05/01 14:03:31;;;;;;;4.50;3.90;;;;;;;;;;5099819;28;20619;-66
2021/05/01 14:05:59;;;;;;;4.40;3.90;;;;;;;;;;5099838;28;20264;-66
2021/05/01 14:08:26;;;;;;;5.13;4.47;;;;;;;;;;5100009;28;20288;-66
2021/05/01 14:10:55;;;;;;;4.47;3.97;;;;;;;;;;5099878;28;20209;-66
2021/05/01 14:13:23;;;;;;;5.90;3.70;;;;;;;;;;5099362;28;20295;-66
2021/05/01 14:15:51;;;;;;;4.43;4.03;;;;;;;;;;5099314;28;20225;-66
2021/05/01 14:18:18;;;;;;;4.03;3.73;;;;;;;;;;5099485;28;20642;-66
2021/05/01 14:20:49;;;;;;;4.27;3.87;;;;;;;;;;5099693;28;20237;-66
2021/05/01 14:23:17;;;;;;;3.67;3.37;;;;;;;;;;5099714;28;20210;-66
2021/05/01 14:25:45;;;;;;;3.97;3.57;;;;;;;;;;5099553;28;20264;-66
2021/05/01 14:28:17;;;;;;;3.93;3.43;;;;;;;;;;5099480;28;20293;-66
2021/05/01 14:30:53;;;;;;;4.30;3.90;;;;;;;;;;5099177;28;20224;-66
2021/05/01 14:33:21;;;;;;;5.97;4.10;;;;;;;;;;5099354;28;20244;-66
2021/05/01 14:35:48;;;;;;;4.33;3.93;;;;;;;;;;5099254;28;20308;-66
2021/05/01 14:38:15;;;;;;;4.50;4.03;;;;;;;;;;5099369;28;20288;-66
2021/05/01 14:40:43;;;;;;;4.43;4.03;;;;;;;;;;5099049;28;20640;-66
2021/05/01 14:43:21;;;;;;;5.23;3.77;;;;;;;;;;5098915;28;20566;-66
2021/05/01 14:45:48;;;;;;;4.37;3.97;;;;;;;;;;5098673;28;20253;-66
2021/05/01 14:48:16;;;;;;;4.40;4.00;;;;;;;;;;5099208;28;20285;-66